sensor_id;sensor_type;location;lat;lon;timestamp;pressure;altitude;pressure_sealevel;temperature;humidity
53522;BME280;39398;48.382;9.802;2023-02-18T00:00:31;94726.38;;;10.12;100.00
53522;BME280;39398;48.382;9.802;2023-02-18T00:05:33;94712.06;;;9.98;100.00
53522;BME280;39398;48.382;9.802;2023-02-18T00:10:36;94726.88;;;10.08;100.00
53522;BME280;39398;48.382;9.802;2023-02-18T00:15:40;94704.59;;;10.35;100.00
53522;BME280;39398;48.382;9.802;2023-02-18T00:20:42;94708.72;;;10.29;100.00
53522;BME280;39398;48.382;9.802;2023-02-18T00:25:45;94720.63;;;10.09;100.00
53522;BME280;39398;48.382;9.802;2023-02-18T00:30:46;94713.53;;;10.01;100.00
53522;BME280;39398;48.382;9.802;2023-02-18T00:35:48;94720.94;;;10.14;100.00
53522;BME280;39398;48.382;9.802;2023-02-18T00:40:51;94702.03;;;9.94;100.00
53522;BME280;39398;48.382;9.802;2023-02-18T00:45:52;94701.69;;;9.97;100.00
53522;BME280;39398;48.382;9.802;2023-02-18T00:50:54;94703.31;;;10.06;100.00
53522;BME280;39398;48.382;9.802;2023-02-18T00:55:57;94701.50;;;10.07;100.00
53522;BME280;39398;48.382;9.802;2023-02-18T01:00:59;94692.59;;;10.08;100.00
53522;BME280;39398;48.382;9.802;2023-02-18T01:06:00;94688.09;;;10.33;100.00
53522;BME280;39398;48.382;9.802;2023-02-18T01:11:04;94696.59;;;9.87;100.00
53522;BME280;39398;48.382;9.802;2023-02-18T01:16:06;94700.97;;;10.19;100.00
53522;BME280;39398;48.382;9.802;2023-02-18T01:21:09;94680.63;;;10.36;100.00
53522;BME280;39398;48.382;9.802;2023-02-18T01:26:12;94668.13;;;10.30;100.00
53522;BME280;39398;48.382;9.802;2023-02-18T01:31:14;94660.56;;;10.27;100.00
53522;BME280;39398;48.382;9.802;2023-02-18T01:36:16;94668.28;;;9.73;100.00
53522;BME280;39398;48.382;9.802;2023-02-18T01:41:19;94684.09;;;9.81;100.00
53522;BME280;39398;48.382;9.802;2023-02-18T01:46:21;94678.81;;;9.73;100.00
53522;BME280;39398;48.382;9.802;2023-02-18T01:51:26;94665.47;;;9.66;100.00
53522;BME280;39398;48.382;9.802;2023-02-18T01:56:32;94658.44;;;9.59;100.00
53522;BME280;39398;48.382;9.802;2023-02-18T02:01:35;94659.91;;;9.61;100.00
53522;BME280;39398;48.382;9.802;2023-02-18T02:06:37;94657.84;;;9.96;100.00
53522;BME280;39398;48.382;9.802;2023-02-18T02:17:14;94651.53;;;9.58;100.00
53522;BME280;39398;48.382;9.802;2023-02-18T02:28:28;94644.72;;;9.80;100.00
53522;BME280;39398;48.382;9.802;2023-02-18T02:39:07;94634.19;;;9.63;100.00
53522;BME280;39398;48.382;9.802;2023-02-18T02:44:19;94634.88;;;9.41;100.00
53522;BME280;39398;48.382;9.802;2023-02-18T02:49:30;94635.47;;;9.75;100.00
53522;BME280;39398;48.382;9.802;2023-02-18T02:54:34;94635.28;;;9.93;100.00
53522;BME280;39398;48.382;9.802;2023-02-18T02:59:38;94632.72;;;9.61;100.00
53522;BME280;39398;48.382;9.802;2023-02-18T03:05:02;94637.16;;;9.60;100.00
53522;BME280;39398;48.382;9.802;2023-02-18T03:10:18;94638.00;;;9.44;100.00
53522;BME280;39398;48.382;9.802;2023-02-18T03:15:27;94624.84;;;9.36;100.00
53522;BME280;39398;48.382;9.802;2023-02-18T03:20:36;94629.81;;;9.23;100.00
53522;BME280;39398;48.382;9.802;2023-02-18T03:25:41;94624.00;;;9.44;100.00
53522;BME280;39398;48.382;9.802;2023-02-18T03:30:47;94622.53;;;9.58;100.00
53522;BME280;39398;48.382;9.802;2023-02-18T03:35:49;94610.00;;;9.51;100.00
53522;BME280;39398;48.382;9.802;2023-02-18T03:40:54;94612.50;;;9.37;100.00
53522;BME280;39398;48.382;9.802;2023-02-18T03:45:56;94622.19;;;9.44;100.00
53522;BME280;39398;48.382;9.802;2023-02-18T03:50:58;94623.69;;;9.30;100.00
53522;BME280;39398;48.382;9.802;2023-02-18T03:56:01;94611.19;;;9.32;100.00
53522;BME280;39398;48.382;9.802;2023-02-18T04:01:04;94600.97;;;9.21;100.00
53522;BME280;39398;48.382;9.802;2023-02-18T04:06:06;94595.41;;;9.08;100.00
53522;BME280;39398;48.382;9.802;2023-02-18T04:11:09;94593.59;;;9.17;100.00
53522;BME280;39398;48.382;9.802;2023-02-18T04:16:11;94597.38;;;9.14;100.00
53522;BME280;39398;48.382;9.802;2023-02-18T04:21:13;94593.91;;;9.22;100.00
53522;BME280;39398;48.382;9.802;2023-02-18T04:26:16;94595.56;;;9.15;100.00
53522;BME280;39398;48.382;9.802;2023-02-18T04:31:17;94602.81;;;9.04;100.00
53522;BME280;39398;48.382;9.802;2023-02-18T04:36:19;94616.47;;;9.16;100.00
53522;BME280;39398;48.382;9.802;2023-02-18T04:41:22;94618.28;;;9.24;100.00
53522;BME280;39398;48.382;9.802;2023-02-18T04:46:24;94609.72;;;9.14;100.00
53522;BME280;39398;48.382;9.802;2023-02-18T04:51:26;94615.16;;;9.20;100.00
53522;BME280;39398;48.382;9.802;2023-02-18T04:56:28;94600.00;;;9.14;100.00
53522;BME280;39398;48.382;9.802;2023-02-18T05:01:30;94615.81;;;8.98;100.00
53522;BME280;39398;48.382;9.802;2023-02-18T05:06:31;94598.72;;;9.10;100.00
53522;BME280;39398;48.382;9.802;2023-02-18T05:11:35;94597.03;;;9.09;100.00
53522;BME280;39398;48.382;9.802;2023-02-18T05:16:36;94584.38;;;8.72;100.00
53522;BME280;39398;48.382;9.802;2023-02-18T05:21:38;94571.53;;;9.01;100.00
53522;BME280;39398;48.382;9.802;2023-02-18T05:26:41;94578.16;;;8.81;100.00
53522;BME280;39398;48.382;9.802;2023-02-18T05:31:42;94582.41;;;8.90;100.00
53522;BME280;39398;48.382;9.802;2023-02-18T05:36:44;94592.59;;;8.77;100.00
53522;BME280;39398;48.382;9.802;2023-02-18T05:41:47;94590.63;;;8.79;100.00
53522;BME280;39398;48.382;9.802;2023-02-18T05:46:48;94593.09;;;8.80;100.00
53522;BME280;39398;48.382;9.802;2023-02-18T05:51:50;94584.38;;;8.88;100.00
53522;BME280;39398;48.382;9.802;2023-02-18T05:56:53;94579.78;;;8.82;100.00
53522;BME280;39398;48.382;9.802;2023-02-18T06:01:55;94585.38;;;8.63;100.00
53522;BME280;39398;48.382;9.802;2023-02-18T06:06:57;94574.00;;;8.87;100.00
53522;BME280;39398;48.382;9.802;2023-02-18T06:12:00;94584.06;;;8.75;100.00
53522;BME280;39398;48.382;9.802;2023-02-18T06:17:01;94588.50;;;8.66;100.00
53522;BME280;39398;48.382;9.802;2023-02-18T06:22:03;94594.75;;;8.90;100.00
53522;BME280;39398;48.382;9.802;2023-02-18T06:27:06;94584.69;;;8.77;100.00
53522;BME280;39398;48.382;9.802;2023-02-18T06:32:08;94591.63;;;8.61;100.00
53522;BME280;39398;48.382;9.802;2023-02-18T06:37:09;94592.63;;;8.85;100.00
53522;BME280;39398;48.382;9.802;2023-02-18T06:42:12;94587.81;;;8.80;100.00
53522;BME280;39398;48.382;9.802;2023-02-18T06:47:14;94589.31;;;8.91;100.00
53522;BME280;39398;48.382;9.802;2023-02-18T06:52:15;94580.13;;;9.03;100.00
53522;BME280;39398;48.382;9.802;2023-02-18T06:57:18;94587.50;;;9.08;100.00
53522;BME280;39398;48.382;9.802;2023-02-18T07:02:19;94596.38;;;9.15;100.00
53522;BME280;39398;48.382;9.802;2023-02-18T07:07:21;94583.38;;;9.14;100.00
53522;BME280;39398;48.382;9.802;2023-02-18T07:12:24;94584.69;;;9.18;100.00
53522;BME280;39398;48.382;9.802;2023-02-18T07:17:27;94591.63;;;9.02;100.00
53522;BME280;39398;48.382;9.802;2023-02-18T07:22:29;94592.25;;;9.29;100.00
53522;BME280;39398;48.382;9.802;2023-02-18T07:27:31;94585.34;;;9.20;100.00
53522;BME280;39398;48.382;9.802;2023-02-18T07:32:33;94589.28;;;9.24;100.00
53522;BME280;39398;48.382;9.802;2023-02-18T07:37:35;94595.38;;;9.32;100.00
53522;BME280;39398;48.382;9.802;2023-02-18T07:42:38;94580.34;;;9.49;100.00
53522;BME280;39398;48.382;9.802;2023-02-18T07:47:39;94574.09;;;9.50;100.00
53522;BME280;39398;48.382;9.802;2023-02-18T07:52:41;94575.44;;;9.86;100.00
53522;BME280;39398;48.382;9.802;2023-02-18T07:57:44;94563.31;;;9.76;100.00
53522;BME280;39398;48.382;9.802;2023-02-18T08:02:45;94561.09;;;9.96;100.00
53522;BME280;39398;48.382;9.802;2023-02-18T08:07:47;94570.06;;;10.10;100.00
53522;BME280;39398;48.382;9.802;2023-02-18T08:12:50;94566.75;;;10.16;100.00
53522;BME280;39398;48.382;9.802;2023-02-18T08:17:51;94566.88;;;10.23;100.00
53522;BME280;39398;48.382;9.802;2023-02-18T08:22:53;94563.75;;;10.28;100.00
53522;BME280;39398;48.382;9.802;2023-02-18T08:27:56;94554.31;;;10.33;100.00
53522;BME280;39398;48.382;9.802;2023-02-18T08:32:57;94557.41;;;10.37;100.00
53522;BME280;39398;48.382;9.802;2023-02-18T08:37:59;94556.56;;;10.44;100.00
53522;BME280;39398;48.382;9.802;2023-02-18T08:43:02;94548.16;;;10.87;100.00
53522;BME280;39398;48.382;9.802;2023-02-18T08:48:04;94546.88;;;10.83;100.00
53522;BME280;39398;48.382;9.802;2023-02-18T08:53:20;94543.44;;;10.97;100.00
53522;BME280;39398;48.382;9.802;2023-02-18T08:58:23;94527.16;;;11.08;100.00
53522;BME280;39398;48.382;9.802;2023-02-18T09:03:25;94532.81;;;11.05;100.00
53522;BME280;39398;48.382;9.802;2023-02-18T09:08:26;94536.75;;;11.24;100.00
53522;BME280;39398;48.382;9.802;2023-02-18T09:13:30;94531.09;;;11.42;100.00
53522;BME280;39398;48.382;9.802;2023-02-18T09:18:32;94527.38;;;11.22;100.00
53522;BME280;39398;48.382;9.802;2023-02-18T09:23:34;94523.78;;;11.00;100.00
53522;BME280;39398;48.382;9.802;2023-02-18T09:28:37;94515.88;;;11.44;100.00
53522;BME280;39398;48.382;9.802;2023-02-18T09:33:41;94529.00;;;11.08;100.00
53522;BME280;39398;48.382;9.802;2023-02-18T09:38:46;94520.06;;;11.38;100.00
53522;BME280;39398;48.382;9.802;2023-02-18T09:43:52;94517.34;;;11.32;100.00
53522;BME280;39398;48.382;9.802;2023-02-18T09:48:54;94507.50;;;11.26;100.00
53522;BME280;39398;48.382;9.802;2023-02-18T09:53:56;94494.09;;;11.12;100.00
53522;BME280;39398;48.382;9.802;2023-02-18T09:59:03;94480.91;;;12.08;99.33
53522;BME280;39398;48.382;9.802;2023-02-18T10:04:12;94480.75;;;12.09;97.15
53522;BME280;39398;48.382;9.802;2023-02-18T10:09:19;94467.69;;;12.08;97.48
53522;BME280;39398;48.382;9.802;2023-02-18T10:14:23;94472.13;;;12.22;97.49
53522;BME280;39398;48.382;9.802;2023-02-18T10:19:28;94464.63;;;12.26;97.30
53522;BME280;39398;48.382;9.802;2023-02-18T10:24:34;94447.06;;;12.25;96.12
53522;BME280;39398;48.382;9.802;2023-02-18T10:29:38;94450.66;;;12.60;94.72
53522;BME280;39398;48.382;9.802;2023-02-18T10:34:42;94454.84;;;12.48;94.47
53522;BME280;39398;48.382;9.802;2023-02-18T10:40:00;94461.63;;;12.57;95.24
53522;BME280;39398;48.382;9.802;2023-02-18T10:45:15;94454.53;;;12.86;93.24
53522;BME280;39398;48.382;9.802;2023-02-18T10:50:26;94463.88;;;12.82;92.59
53522;BME280;39398;48.382;9.802;2023-02-18T10:55:37;94465.13;;;12.36;92.69
53522;BME280;39398;48.382;9.802;2023-02-18T11:00:40;94439.72;;;12.42;92.31
53522;BME280;39398;48.382;9.802;2023-02-18T11:05:43;94460.44;;;12.60;92.28
53522;BME280;39398;48.382;9.802;2023-02-18T11:10:46;94453.75;;;12.21;93.61
53522;BME280;39398;48.382;9.802;2023-02-18T11:16:00;94459.31;;;12.26;92.17
53522;BME280;39398;48.382;9.802;2023-02-18T11:21:04;94455.09;;;12.53;91.39
53522;BME280;39398;48.382;9.802;2023-02-18T11:26:11;94454.97;;;12.40;90.17
53522;BME280;39398;48.382;9.802;2023-02-18T11:31:20;94442.91;;;12.59;88.67
53522;BME280;39398;48.382;9.802;2023-02-18T11:36:27;94432.53;;;12.14;88.51
53522;BME280;39398;48.382;9.802;2023-02-18T11:41:32;94432.47;;;12.29;88.08
53522;BME280;39398;48.382;9.802;2023-02-18T11:46:36;94418.03;;;12.10;85.71
53522;BME280;39398;48.382;9.802;2023-02-18T11:51:39;94427.81;;;12.80;85.04
53522;BME280;39398;48.382;9.802;2023-02-18T11:56:53;94424.50;;;12.50;84.48
53522;BME280;39398;48.382;9.802;2023-02-18T12:02:02;94407.13;;;12.69;82.84
53522;BME280;39398;48.382;9.802;2023-02-18T12:07:14;94402.31;;;13.14;80.87
53522;BME280;39398;48.382;9.802;2023-02-18T12:12:25;94409.44;;;13.07;80.30
53522;BME280;39398;48.382;9.802;2023-02-18T12:23:12;94389.56;;;12.62;79.98
53522;BME280;39398;48.382;9.802;2023-02-18T12:28:27;94386.31;;;12.94;79.99
53522;BME280;39398;48.382;9.802;2023-02-18T12:33:43;94382.72;;;12.74;80.12
53522;BME280;39398;48.382;9.802;2023-02-18T12:39:08;94378.72;;;12.85;78.93
53522;BME280;39398;48.382;9.802;2023-02-18T12:44:22;94372.25;;;12.94;79.51
53522;BME280;39398;48.382;9.802;2023-02-18T12:49:40;94393.06;;;12.69;81.00
53522;BME280;39398;48.382;9.802;2023-02-18T12:54:56;94396.44;;;12.56;79.00
53522;BME280;39398;48.382;9.802;2023-02-18T13:05:37;94390.94;;;12.86;76.59
53522;BME280;39398;48.382;9.802;2023-02-18T13:10:51;94392.94;;;11.84;81.55
53522;BME280;39398;48.382;9.802;2023-02-18T13:15:58;94387.34;;;11.79;83.67
53522;BME280;39398;48.382;9.802;2023-02-18T13:21:05;94385.16;;;11.61;83.58
53522;BME280;39398;48.382;9.802;2023-02-18T13:26:10;94376.91;;;11.71;81.75
53522;BME280;39398;48.382;9.802;2023-02-18T13:31:21;94373.19;;;11.66;79.08
53522;BME280;39398;48.382;9.802;2023-02-18T13:36:40;94364.88;;;11.69;80.51
53522;BME280;39398;48.382;9.802;2023-02-18T13:41:47;94361.94;;;12.21;77.41
53522;BME280;39398;48.382;9.802;2023-02-18T13:46:50;94351.06;;;12.09;80.18
53522;BME280;39398;48.382;9.802;2023-02-18T13:51:54;94360.69;;;12.17;78.42
53522;BME280;39398;48.382;9.802;2023-02-18T13:57:00;94349.66;;;12.14;76.39
53522;BME280;39398;48.382;9.802;2023-02-18T14:02:30;94356.91;;;12.54;74.01
53522;BME280;39398;48.382;9.802;2023-02-18T14:07:51;94362.69;;;12.37;75.42
53522;BME280;39398;48.382;9.802;2023-02-18T14:13:22;94366.41;;;11.78;78.78
53522;BME280;39398;48.382;9.802;2023-02-18T14:18:55;94367.22;;;11.78;77.30
53522;BME280;39398;48.382;9.802;2023-02-18T14:24:00;94376.44;;;11.68;76.17
53522;BME280;39398;48.382;9.802;2023-02-18T14:29:10;94378.41;;;11.59;81.23
53522;BME280;39398;48.382;9.802;2023-02-18T14:34:43;94375.81;;;11.66;79.85
53522;BME280;39398;48.382;9.802;2023-02-18T14:39:56;94373.94;;;11.45;79.89
53522;BME280;39398;48.382;9.802;2023-02-18T14:45:20;94356.72;;;11.49;79.10
53522;BME280;39398;48.382;9.802;2023-02-18T14:50:25;94351.50;;;11.77;77.44
53522;BME280;39398;48.382;9.802;2023-02-18T14:55:31;94349.25;;;11.52;78.04
53522;BME280;39398;48.382;9.802;2023-02-18T15:00:39;94327.78;;;11.62;78.48
53522;BME280;39398;48.382;9.802;2023-02-18T15:05:41;94330.59;;;11.60;78.13
53522;BME280;39398;48.382;9.802;2023-02-18T15:10:47;94317.28;;;11.69;78.04
53522;BME280;39398;48.382;9.802;2023-02-18T15:15:52;94325.88;;;11.56;79.89
53522;BME280;39398;48.382;9.802;2023-02-18T15:20:55;94328.28;;;11.72;77.27
53522;BME280;39398;48.382;9.802;2023-02-18T15:25:58;94328.19;;;11.44;81.28
53522;BME280;39398;48.382;9.802;2023-02-18T15:31:01;94325.19;;;11.69;78.91
53522;BME280;39398;48.382;9.802;2023-02-18T15:36:06;94318.19;;;11.39;79.14
53522;BME280;39398;48.382;9.802;2023-02-18T15:41:15;94323.75;;;11.66;78.14
53522;BME280;39398;48.382;9.802;2023-02-18T15:46:17;94330.28;;;11.49;82.40
53522;BME280;39398;48.382;9.802;2023-02-18T15:51:20;94326.59;;;11.28;80.48
53522;BME280;39398;48.382;9.802;2023-02-18T15:56:29;94333.44;;;11.59;78.83
53522;BME280;39398;48.382;9.802;2023-02-18T16:01:31;94321.59;;;11.76;78.44
53522;BME280;39398;48.382;9.802;2023-02-18T16:06:37;94324.88;;;11.78;78.38
53522;BME280;39398;48.382;9.802;2023-02-18T16:11:43;94314.94;;;11.23;79.46
53522;BME280;39398;48.382;9.802;2023-02-18T16:16:58;94310.53;;;11.66;78.59
53522;BME280;39398;48.382;9.802;2023-02-18T16:22:03;94318.53;;;11.73;77.62
53522;BME280;39398;48.382;9.802;2023-02-18T16:27:15;94309.16;;;11.34;79.96
53522;BME280;39398;48.382;9.802;2023-02-18T16:32:16;94309.94;;;11.49;79.36
53522;BME280;39398;48.382;9.802;2023-02-18T16:37:18;94317.97;;;11.05;80.71
53522;BME280;39398;48.382;9.802;2023-02-18T16:42:21;94314.16;;;10.92;80.16
53522;BME280;39398;48.382;9.802;2023-02-18T16:47:22;94320.47;;;10.91;79.50
53522;BME280;39398;48.382;9.802;2023-02-18T16:52:24;94322.09;;;11.07;79.89
53522;BME280;39398;48.382;9.802;2023-02-18T16:57:27;94328.09;;;10.86;80.27
53522;BME280;39398;48.382;9.802;2023-02-18T17:02:30;94345.59;;;10.87;81.31
53522;BME280;39398;48.382;9.802;2023-02-18T17:07:31;94336.13;;;10.63;83.23
53522;BME280;39398;48.382;9.802;2023-02-18T17:12:34;94341.78;;;10.60;84.46
53522;BME280;39398;48.382;9.802;2023-02-18T17:17:36;94334.41;;;10.85;82.79
53522;BME280;39398;48.382;9.802;2023-02-18T17:22:38;94335.75;;;10.81;83.31
53522;BME280;39398;48.382;9.802;2023-02-18T17:27:41;94333.31;;;10.94;83.40
53522;BME280;39398;48.382;9.802;2023-02-18T17:32:43;94338.03;;;10.84;83.67
53522;BME280;39398;48.382;9.802;2023-02-18T17:37:45;94331.00;;;10.62;85.35
53522;BME280;39398;48.382;9.802;2023-02-18T17:42:48;94332.94;;;10.68;84.38
53522;BME280;39398;48.382;9.802;2023-02-18T17:47:50;94330.66;;;10.50;86.12
53522;BME280;39398;48.382;9.802;2023-02-18T17:52:51;94326.09;;;10.74;83.98
53522;BME280;39398;48.382;9.802;2023-02-18T17:57:55;94328.13;;;10.19;87.09
53522;BME280;39398;48.382;9.802;2023-02-18T18:02:57;94335.69;;;10.22;87.24
53522;BME280;39398;48.382;9.802;2023-02-18T18:08:00;94338.94;;;10.47;86.94
53522;BME280;39398;48.382;9.802;2023-02-18T18:13:05;94327.72;;;10.45;86.89
53522;BME280;39398;48.382;9.802;2023-02-18T18:18:09;94344.53;;;10.29;87.64
53522;BME280;39398;48.382;9.802;2023-02-18T18:23:12;94337.47;;;10.44;86.40
53522;BME280;39398;48.382;9.802;2023-02-18T18:28:16;94346.94;;;10.39;86.61
53522;BME280;39398;48.382;9.802;2023-02-18T18:33:19;94347.19;;;10.29;88.23
53522;BME280;39398;48.382;9.802;2023-02-18T18:38:22;94344.06;;;10.63;86.77
53522;BME280;39398;48.382;9.802;2023-02-18T18:43:27;94342.94;;;10.20;89.25
53522;BME280;39398;48.382;9.802;2023-02-18T18:48:32;94337.44;;;10.30;88.79
53522;BME280;39398;48.382;9.802;2023-02-18T18:53:34;94343.28;;;10.40;87.37
53522;BME280;39398;48.382;9.802;2023-02-18T18:58:38;94338.91;;;10.32;87.26
53522;BME280;39398;48.382;9.802;2023-02-18T19:03:39;94343.69;;;9.91;90.08
53522;BME280;39398;48.382;9.802;2023-02-18T19:08:41;94339.63;;;10.03;91.36
53522;BME280;39398;48.382;9.802;2023-02-18T19:13:44;94337.09;;;10.10;91.00
53522;BME280;39398;48.382;9.802;2023-02-18T19:18:46;94338.41;;;9.91;91.39
53522;BME280;39398;48.382;9.802;2023-02-18T19:23:48;94336.59;;;9.91;91.92
53522;BME280;39398;48.382;9.802;2023-02-18T19:28:51;94332.19;;;10.07;90.62
53522;BME280;39398;48.382;9.802;2023-02-18T19:33:53;94334.41;;;10.18;89.21
53522;BME280;39398;48.382;9.802;2023-02-18T19:38:54;94339.56;;;10.11;90.25
53522;BME280;39398;48.382;9.802;2023-02-18T19:43:57;94343.63;;;10.37;89.09
53522;BME280;39398;48.382;9.802;2023-02-18T19:48:59;94349.47;;;10.09;89.45
53522;BME280;39398;48.382;9.802;2023-02-18T19:54:00;94350.03;;;10.19;88.75
53522;BME280;39398;48.382;9.802;2023-02-18T19:59:03;94348.56;;;10.40;88.07
53522;BME280;39398;48.382;9.802;2023-02-18T20:04:05;94348.00;;;10.30;88.47
53522;BME280;39398;48.382;9.802;2023-02-18T20:09:06;94351.66;;;10.29;88.88
53522;BME280;39398;48.382;9.802;2023-02-18T20:14:10;94360.97;;;9.93;90.93
53522;BME280;39398;48.382;9.802;2023-02-18T20:19:11;94370.16;;;9.97;91.67
53522;BME280;39398;48.382;9.802;2023-02-18T20:24:13;94370.63;;;10.01;91.11
53522;BME280;39398;48.382;9.802;2023-02-18T20:29:16;94366.13;;;10.33;88.67
53522;BME280;39398;48.382;9.802;2023-02-18T20:34:17;94383.97;;;10.45;88.38
53522;BME280;39398;48.382;9.802;2023-02-18T20:39:19;94377.59;;;10.17;89.22
53522;BME280;39398;48.382;9.802;2023-02-18T20:44:22;94366.47;;;10.30;88.66
53522;BME280;39398;48.382;9.802;2023-02-18T20:49:24;94370.69;;;10.16;90.12
53522;BME280;39398;48.382;9.802;2023-02-18T20:54:25;94375.53;;;9.89;90.21
53522;BME280;39398;48.382;9.802;2023-02-18T20:59:29;94368.59;;;10.49;87.37
53522;BME280;39398;48.382;9.802;2023-02-18T21:04:30;94370.88;;;10.52;86.72
53522;BME280;39398;48.382;9.802;2023-02-18T21:09:32;94373.06;;;10.48;86.64
53522;BME280;39398;48.382;9.802;2023-02-18T21:14:35;94377.63;;;10.55;85.93
53522;BME280;39398;48.382;9.802;2023-02-18T21:19:36;94375.78;;;10.40;86.64
53522;BME280;39398;48.382;9.802;2023-02-18T21:24:38;94374.34;;;10.53;86.01
53522;BME280;39398;48.382;9.802;2023-02-18T21:29:41;94366.88;;;10.41;86.09
53522;BME280;39398;48.382;9.802;2023-02-18T21:34:42;94368.59;;;10.49;86.42
53522;BME280;39398;48.382;9.802;2023-02-18T21:39:44;94371.69;;;10.53;86.36
53522;BME280;39398;48.382;9.802;2023-02-18T21:44:47;94361.66;;;10.33;87.20
53522;BME280;39398;48.382;9.802;2023-02-18T21:49:49;94370.38;;;9.96;89.52
53522;BME280;39398;48.382;9.802;2023-02-18T21:54:50;94373.69;;;9.90;89.29
53522;BME280;39398;48.382;9.802;2023-02-18T21:59:54;94363.09;;;9.75;90.68
53522;BME280;39398;48.382;9.802;2023-02-18T22:04:55;94369.53;;;9.72;91.26
53522;BME280;39398;48.382;9.802;2023-02-18T22:09:57;94367.44;;;9.68;91.48
53522;BME280;39398;48.382;9.802;2023-02-18T22:15:00;94364.25;;;9.72;91.44
53522;BME280;39398;48.382;9.802;2023-02-18T22:20:02;94356.91;;;9.83;90.96
53522;BME280;39398;48.382;9.802;2023-02-18T22:25:05;94357.50;;;9.70;91.52
53522;BME280;39398;48.382;9.802;2023-02-18T22:30:09;94348.50;;;9.64;92.25
53522;BME280;39398;48.382;9.802;2023-02-18T22:35:10;94349.81;;;9.60;92.24
53522;BME280;39398;48.382;9.802;2023-02-18T22:40:12;94336.94;;;9.42;93.28
53522;BME280;39398;48.382;9.802;2023-02-18T22:45:15;94338.34;;;9.30;93.90
53522;BME280;39398;48.382;9.802;2023-02-18T22:50:16;94341.75;;;9.39;93.37
53522;BME280;39398;48.382;9.802;2023-02-18T22:55:18;94331.38;;;9.37;93.73
53522;BME280;39398;48.382;9.802;2023-02-18T23:00:23;94333.53;;;9.34;94.31
53522;BME280;39398;48.382;9.802;2023-02-18T23:05:25;94330.50;;;9.45;93.59
53522;BME280;39398;48.382;9.802;2023-02-18T23:10:27;94321.72;;;9.52;93.39
53522;BME280;39398;48.382;9.802;2023-02-18T23:15:30;94320.00;;;9.37;94.45
53522;BME280;39398;48.382;9.802;2023-02-18T23:20:31;94317.69;;;9.65;92.71
53522;BME280;39398;48.382;9.802;2023-02-18T23:25:33;94309.00;;;9.56;92.74
53522;BME280;39398;48.382;9.802;2023-02-18T23:30:36;94297.47;;;9.34;94.15
53522;BME280;39398;48.382;9.802;2023-02-18T23:35:37;94297.94;;;9.38;94.16
53522;BME280;39398;48.382;9.802;2023-02-18T23:40:39;94303.13;;;9.54;92.96
53522;BME280;39398;48.382;9.802;2023-02-18T23:45:42;94298.66;;;9.54;93.02
53522;BME280;39398;48.382;9.802;2023-02-18T23:50:43;94300.16;;;9.72;92.32
53522;BME280;39398;48.382;9.802;2023-02-18T23:55:45;94306.91;;;9.51;93.60
